createdAt,value
2023-02-11T00:01:31.115Z,28.05
2023-02-11T00:04:33.823Z,27.13
2023-02-11T00:07:40.043Z,25.27
2023-02-11T00:10:42.986Z,24.30
2023-02-11T00:13:46.499Z,24.67
2023-02-11T00:16:49.222Z,24.92
2023-02-11T00:19:52.827Z,25.90
2023-02-11T00:22:55.567Z,24.83
2023-02-11T00:25:58.369Z,24.40
2023-02-11T00:29:02.291Z,23.33
2023-02-11T00:32:09.024Z,23.98
2023-02-11T00:35:11.875Z,25.02
2023-02-11T00:38:15.246Z,25.70
2023-02-11T00:41:19.278Z,22.55
2023-02-11T00:44:21.932Z,23.90
2023-02-11T00:47:24.768Z,23.42
2023-02-11T00:50:27.483Z,24.50
2023-02-11T00:53:32.840Z,23.67
2023-02-11T00:56:35.655Z,23.85
2023-02-11T00:59:38.765Z,22.52
2023-02-11T01:02:41.771Z,23.55
2023-02-11T01:05:46.630Z,23.42
2023-02-11T01:08:49.345Z,24.30
2023-02-11T01:11:51.954Z,24.70
2023-02-11T01:14:55.362Z,25.77
2023-02-11T01:17:58.079Z,22.63
2023-02-11T01:21:00.701Z,23.80
2023-02-11T01:24:03.428Z,22.37
2023-02-11T01:27:06.134Z,21.83
2023-02-11T01:30:13.581Z,23.88
2023-02-11T01:33:16.690Z,23.83
2023-02-11T01:36:19.427Z,24.13
2023-02-11T01:39:22.194Z,22.27
2023-02-11T01:42:24.892Z,21.92
2023-02-11T01:45:46.332Z,24.42
2023-02-11T01:48:53.357Z,22.33
2023-02-11T01:52:02.246Z,24.27
2023-02-11T01:55:27.778Z,23.00
2023-02-11T01:58:33.779Z,20.80
2023-02-11T02:01:38.790Z,24.10
2023-02-11T02:05:02.980Z,22.35
2023-02-11T02:08:08.592Z,21.48
2023-02-11T02:11:12.056Z,21.93
2023-02-11T02:14:14.646Z,22.60
2023-02-11T02:17:42.577Z,23.27
2023-02-11T02:21:16.661Z,20.90
2023-02-11T02:24:46.221Z,21.92
2023-02-11T02:28:19.912Z,23.03
2023-02-11T02:31:59.287Z,23.25
2023-02-11T02:35:12.868Z,24.27
2023-02-11T02:38:28.946Z,21.50
2023-02-11T02:41:34.817Z,21.50
2023-02-11T02:44:37.566Z,23.30
2023-02-11T02:47:40.581Z,24.45
2023-02-11T02:50:43.502Z,23.17
2023-02-11T02:54:07.091Z,21.85
2023-02-11T02:57:18.522Z,21.65
2023-02-11T03:01:00.981Z,20.97
2023-02-11T03:04:17.355Z,23.15
2023-02-11T03:07:25.594Z,22.58
2023-02-11T03:10:58.137Z,22.73
2023-02-11T03:14:04.131Z,23.58
2023-02-11T03:17:10.601Z,24.53
2023-02-11T03:20:16.287Z,22.25
2023-02-11T03:23:33.235Z,21.45
2023-02-11T03:26:45.095Z,22.50
2023-02-11T03:30:01.456Z,22.38
2023-02-11T03:33:12.348Z,22.30
2023-02-11T03:36:21.575Z,22.55
2023-02-11T03:39:36.699Z,23.40
2023-02-11T03:42:48.197Z,23.23
2023-02-11T03:45:54.323Z,23.27
2023-02-11T03:49:02.888Z,22.47
2023-02-11T03:52:11.304Z,23.52
2023-02-11T03:55:17.782Z,22.00
2023-02-11T03:58:20.874Z,22.13
2023-02-11T04:01:24.047Z,24.80
2023-02-11T04:04:26.777Z,23.93
2023-02-11T04:07:29.456Z,23.10
2023-02-11T04:10:32.202Z,23.02
2023-02-11T04:13:34.932Z,24.02
2023-02-11T04:16:37.800Z,24.15
2023-02-11T04:19:40.700Z,24.07
2023-02-11T04:22:43.622Z,24.90
2023-02-11T04:25:46.366Z,23.23
2023-02-11T04:28:49.356Z,23.00
2023-02-11T04:31:52.267Z,25.02
2023-02-11T04:34:55.479Z,24.10
2023-02-11T04:37:58.171Z,23.75
2023-02-11T04:41:01.036Z,21.80
2023-02-11T04:44:04.317Z,24.75
2023-02-11T04:47:07.107Z,25.63
2023-02-11T04:50:10.204Z,23.40
2023-02-11T04:53:12.843Z,27.23
2023-02-11T04:56:15.756Z,26.42
2023-02-11T04:59:18.496Z,25.83
2023-02-11T05:02:22.361Z,26.05
2023-02-11T05:05:24.996Z,26.93
2023-02-11T05:08:27.814Z,23.60
2023-02-11T05:11:30.647Z,23.63
2023-02-11T05:14:33.485Z,23.33
2023-02-11T05:17:36.217Z,24.58
2023-02-11T05:20:39.390Z,26.83
2023-02-11T05:23:42.609Z,30.30
2023-02-11T05:26:45.254Z,23.80
2023-02-11T05:29:48.181Z,25.73
2023-02-11T05:32:51.028Z,25.00
2023-02-11T05:36:02.475Z,24.80
2023-02-11T05:39:05.350Z,23.65
2023-02-11T05:42:08.406Z,24.92
2023-02-11T05:45:11.124Z,24.63
2023-02-11T05:48:14.242Z,24.95
2023-02-11T05:51:16.901Z,27.13
2023-02-11T05:54:19.560Z,25.02
2023-02-11T05:57:22.519Z,27.77
2023-02-11T06:00:25.569Z,25.85
2023-02-11T06:03:28.374Z,24.13
2023-02-11T06:06:31.401Z,23.70
2023-02-11T06:09:34.085Z,23.70
2023-02-11T06:12:38.222Z,25.38
2023-02-11T06:15:40.939Z,25.40
2023-02-11T06:18:45.790Z,24.42
2023-02-11T06:21:49.262Z,26.80
2023-02-11T06:25:01.192Z,22.75
2023-02-11T06:28:05.033Z,25.85
2023-02-11T06:31:09.736Z,24.02
2023-02-11T06:34:12.438Z,25.40
2023-02-11T06:37:15.252Z,25.17
2023-02-11T06:40:17.896Z,22.63
2023-02-11T06:43:21.567Z,24.92
2023-02-11T06:46:24.460Z,24.35
2023-02-11T06:49:27.226Z,24.45
2023-02-11T06:52:30.098Z,25.50
2023-02-11T06:55:35.141Z,23.75
2023-02-11T06:58:38.155Z,24.60
2023-02-11T07:01:40.805Z,25.60
2023-02-11T07:04:43.502Z,24.98
2023-02-11T07:07:46.401Z,24.43
2023-02-11T07:10:49.085Z,24.10
2023-02-11T07:13:52.770Z,22.63
2023-02-11T07:16:56.468Z,24.88
2023-02-11T07:19:59.400Z,25.20
2023-02-11T07:23:01.980Z,23.07
2023-02-11T07:26:06.407Z,22.38
2023-02-11T07:29:09.211Z,23.25
2023-02-11T07:32:11.842Z,22.98
2023-02-11T07:35:15.044Z,24.58
2023-02-11T07:38:18.209Z,23.93
2023-02-11T07:41:22.681Z,24.35
2023-02-11T07:44:25.610Z,23.88
2023-02-11T07:47:28.228Z,24.13
2023-02-11T07:50:30.836Z,22.52
2023-02-11T07:53:34.076Z,22.47
2023-02-11T07:56:36.709Z,22.75
2023-02-11T07:59:40.166Z,24.80
2023-02-11T08:02:43.121Z,22.90
2023-02-11T08:05:45.696Z,23.35
2023-02-11T08:08:49.128Z,23.50
2023-02-11T08:11:52.047Z,21.65
2023-02-11T08:14:56.407Z,20.83
2023-02-11T08:17:59.005Z,23.58
2023-02-11T08:21:09.841Z,22.45
2023-02-11T08:24:12.778Z,22.53
2023-02-11T08:27:15.458Z,20.98
2023-02-11T08:30:18.362Z,22.65
2023-02-11T08:33:20.942Z,20.75
2023-02-11T08:36:34.598Z,22.20
2023-02-11T08:39:37.829Z,24.13
2023-02-11T08:42:40.846Z,24.17
2023-02-11T08:45:44.217Z,23.90
2023-02-11T08:48:48.090Z,23.15
2023-02-11T08:51:51.384Z,22.90
2023-02-11T08:54:54.407Z,21.43
2023-02-11T08:57:57.211Z,22.65
2023-02-11T09:00:59.892Z,23.20
2023-02-11T09:04:03.048Z,21.92
2023-02-11T09:07:06.028Z,22.02
2023-02-11T09:10:09.347Z,21.87
2023-02-11T09:13:12.065Z,23.02
2023-02-11T09:16:24.447Z,21.83
2023-02-11T09:19:27.333Z,21.25
2023-02-11T09:22:30.287Z,21.30
2023-02-11T09:25:33.111Z,21.40
2023-02-11T09:28:36.083Z,21.52
2023-02-11T09:31:38.932Z,22.08
2023-02-11T09:34:41.620Z,23.00
2023-02-11T09:37:44.437Z,23.15
2023-02-11T09:40:47.130Z,21.70
2023-02-11T09:43:53.913Z,22.27
2023-02-11T09:47:00.661Z,22.20
2023-02-11T09:50:12.514Z,24.00
2023-02-11T09:53:22.388Z,24.10
2023-02-11T09:56:25.356Z,23.07
2023-02-11T09:59:28.075Z,22.63
2023-02-11T10:02:30.794Z,21.17
2023-02-11T10:05:44.698Z,22.15
2023-02-11T10:09:10.940Z,22.67
2023-02-11T10:12:45.923Z,21.60
2023-02-11T10:16:07.099Z,20.98
2023-02-11T10:19:36.223Z,22.08
2023-02-11T10:22:47.122Z,21.25
2023-02-11T10:25:56.725Z,21.90
2023-02-11T10:29:05.263Z,22.47
2023-02-11T10:32:23.182Z,20.85
2023-02-11T10:35:27.350Z,22.15
2023-02-11T10:38:31.176Z,21.45
2023-02-11T10:41:38.662Z,21.05
2023-02-11T10:45:04.454Z,20.80
2023-02-11T10:48:39.510Z,20.67
2023-02-11T10:51:42.071Z,22.27
2023-02-11T10:54:59.593Z,23.45
2023-02-11T10:58:03.239Z,22.40
2023-02-11T11:01:19.013Z,21.13
2023-02-11T11:04:44.984Z,20.65
2023-02-11T11:08:09.069Z,21.50
2023-02-11T11:11:21.658Z,21.42
2023-02-11T11:14:29.049Z,21.92
2023-02-11T11:17:31.996Z,19.80
2023-02-11T11:20:36.415Z,21.58
2023-02-11T11:23:40.289Z,22.83
2023-02-11T11:26:46.698Z,22.23
2023-02-11T11:29:53.911Z,22.35
2023-02-11T11:32:56.758Z,20.10
2023-02-11T11:36:24.438Z,20.73
2023-02-11T11:39:33.782Z,22.30
2023-02-11T11:42:39.064Z,20.42
2023-02-11T11:45:59.231Z,20.50
2023-02-11T11:49:14.321Z,22.87
2023-02-11T11:52:39.842Z,22.02
2023-02-11T11:55:49.873Z,22.95
2023-02-11T11:58:54.715Z,20.50
2023-02-11T12:02:46.707Z,22.70
2023-02-11T12:06:21.589Z,22.60
2023-02-11T12:09:58.790Z,22.30
2023-02-11T12:13:04.022Z,20.85
2023-02-11T12:16:18.713Z,22.70
2023-02-11T12:19:30.421Z,21.02
2023-02-11T12:23:07.948Z,19.60
2023-02-11T12:26:23.562Z,20.55
2023-02-11T12:29:31.492Z,21.60
2023-02-11T12:32:43.646Z,20.98
2023-02-11T12:36:28.219Z,20.40
2023-02-11T12:39:43.510Z,20.63
2023-02-11T12:43:17.564Z,20.45
2023-02-11T12:46:33.579Z,20.05
2023-02-11T12:50:04.705Z,20.67
2023-02-11T12:53:14.054Z,20.00
2023-02-11T12:56:24.723Z,20.23
2023-02-11T12:59:56.679Z,20.73
2023-02-11T13:03:06.381Z,20.17
2023-02-11T13:06:18.293Z,19.33
2023-02-11T13:09:29.505Z,19.75
2023-02-11T13:12:52.287Z,20.27
2023-02-11T13:16:13.761Z,19.50
2023-02-11T13:19:27.031Z,20.02
2023-02-11T13:22:42.061Z,20.20
2023-02-11T13:26:20.858Z,21.55
2023-02-11T13:29:49.995Z,19.27
2023-02-11T13:32:56.206Z,20.10
2023-02-11T13:35:59.371Z,19.65
2023-02-11T13:39:06.611Z,22.23
2023-02-11T13:42:16.641Z,19.00
2023-02-11T13:45:30.892Z,20.23
2023-02-11T13:48:46.282Z,19.35
2023-02-11T13:51:50.586Z,17.95
2023-02-11T13:54:55.765Z,19.38
2023-02-11T13:58:14.167Z,18.92
2023-02-11T14:01:40.055Z,18.83
2023-02-11T14:05:30.564Z,19.40
2023-02-11T14:09:09.541Z,19.40
2023-02-11T14:12:35.077Z,19.58
2023-02-11T14:15:39.969Z,19.65
2023-02-11T14:18:45.665Z,19.80
2023-02-11T14:21:49.968Z,20.05
2023-02-11T14:25:01.578Z,18.63
2023-02-11T14:28:23.418Z,17.85
2023-02-11T14:32:00.211Z,18.52
2023-02-11T14:35:28.096Z,18.07
2023-02-11T14:39:01.823Z,18.50
2023-02-11T14:42:05.334Z,17.65
2023-02-11T14:45:13.521Z,18.98
2023-02-11T14:48:24.083Z,17.52
2023-02-11T14:51:41.204Z,18.47
2023-02-11T14:54:46.969Z,17.33
2023-02-11T14:58:14.211Z,18.08
2023-02-11T15:01:41.396Z,16.98
2023-02-11T15:04:45.293Z,17.30
2023-02-11T15:07:53.272Z,16.90
2023-02-11T15:10:58.204Z,17.60
2023-02-11T15:14:19.262Z,17.13
2023-02-11T15:17:26.442Z,17.90
2023-02-11T15:20:34.286Z,18.88
2023-02-11T15:23:39.427Z,15.80
2023-02-11T15:26:42.378Z,17.08
2023-02-11T15:29:51.574Z,17.38
2023-02-11T15:33:06.591Z,17.73
2023-02-11T15:36:12.793Z,17.83
2023-02-11T15:39:32.075Z,16.53
2023-02-11T15:42:50.620Z,16.77
2023-02-11T15:46:01.084Z,17.67
2023-02-11T15:49:09.059Z,17.73
2023-02-11T15:52:15.604Z,17.17
2023-02-11T15:55:20.260Z,17.87
2023-02-11T15:58:25.831Z,18.27
2023-02-11T16:01:34.139Z,18.17
2023-02-11T16:04:40.083Z,17.55
2023-02-11T16:07:51.104Z,18.98
2023-02-11T16:11:09.087Z,17.77
2023-02-11T16:14:39.748Z,17.55
2023-02-11T16:17:44.800Z,19.75
2023-02-11T16:20:49.955Z,17.58
2023-02-11T16:23:57.236Z,18.20
2023-02-11T16:27:08.170Z,18.60
2023-02-11T16:30:32.047Z,16.42
2023-02-11T16:33:36.014Z,17.20
2023-02-11T16:36:42.106Z,19.00
2023-02-11T16:39:46.536Z,17.08
2023-02-11T16:42:52.932Z,17.00
2023-02-11T16:45:59.739Z,18.08
2023-02-11T16:49:34.743Z,16.85
2023-02-11T16:52:39.362Z,18.10
2023-02-11T16:55:43.755Z,16.88
2023-02-11T16:58:47.581Z,17.00
2023-02-11T17:01:54.584Z,17.45
2023-02-11T17:05:00.846Z,17.73
2023-02-11T17:08:07.372Z,18.98
2023-02-11T17:11:11.300Z,18.70
2023-02-11T17:14:15.455Z,17.33
2023-02-11T17:17:19.611Z,18.63
2023-02-11T17:20:23.702Z,18.20
2023-02-11T17:23:27.784Z,18.02
2023-02-11T17:26:35.891Z,17.77
2023-02-11T17:29:39.621Z,17.33
2023-02-11T17:32:45.410Z,18.83
2023-02-11T17:35:52.335Z,18.70
2023-02-11T17:39:06.311Z,17.13
2023-02-11T17:42:12.857Z,16.88
2023-02-11T17:45:17.410Z,18.17
2023-02-11T17:48:22.122Z,18.75
2023-02-11T17:51:28.000Z,17.95
2023-02-11T17:54:33.244Z,18.45
2023-02-11T17:57:38.024Z,17.13
2023-02-11T18:00:46.536Z,17.47
2023-02-11T18:03:51.354Z,17.58
2023-02-11T18:06:58.100Z,17.77
2023-02-11T18:10:02.036Z,16.75
2023-02-11T18:13:07.197Z,17.63
2023-02-11T18:16:16.116Z,18.03
2023-02-11T18:19:20.952Z,18.20
2023-02-11T18:22:26.704Z,17.08
2023-02-11T18:25:30.584Z,18.23
2023-02-11T18:28:35.205Z,16.85
2023-02-11T18:31:40.627Z,16.30
2023-02-11T18:34:45.462Z,18.25
2023-02-11T18:37:50.141Z,18.15
2023-02-11T18:40:59.648Z,17.15
2023-02-11T18:44:05.227Z,17.08
2023-02-11T18:47:09.526Z,18.13
2023-02-11T18:50:16.143Z,17.33
2023-02-11T18:53:22.674Z,19.73
2023-02-11T18:56:28.443Z,17.98
2023-02-11T18:59:35.633Z,17.15
2023-02-11T19:02:43.051Z,17.30
2023-02-11T19:05:50.597Z,16.58
2023-02-11T19:08:59.512Z,17.23
2023-02-11T19:12:05.372Z,17.85
2023-02-11T19:15:09.416Z,17.33
2023-02-11T19:18:15.257Z,17.20
2023-02-11T19:21:21.313Z,17.92
2023-02-11T19:24:30.542Z,18.42
2023-02-11T19:27:35.218Z,17.63
2023-02-11T19:30:39.811Z,18.10
2023-02-11T19:33:45.396Z,17.03
2023-02-11T19:36:53.280Z,16.73
2023-02-11T19:39:59.250Z,17.77
2023-02-11T19:43:04.316Z,17.00
2023-02-11T19:46:08.958Z,16.10
2023-02-11T19:49:18.525Z,17.43
2023-02-11T19:52:24.616Z,17.40
2023-02-11T19:55:30.050Z,15.93
2023-02-11T19:58:38.013Z,19.55
2023-02-11T20:01:43.314Z,16.65
2023-02-11T20:04:48.904Z,17.43
2023-02-11T20:07:54.612Z,17.08
2023-02-11T20:11:08.204Z,16.70
2023-02-11T20:14:15.433Z,16.15
2023-02-11T20:17:22.688Z,16.60
2023-02-11T20:20:28.581Z,16.37
2023-02-11T20:23:34.951Z,20.17
2023-02-11T20:26:42.913Z,16.30
2023-02-11T20:29:47.199Z,17.90
2023-02-11T20:32:51.724Z,15.82
2023-02-11T20:35:58.365Z,16.93
2023-02-11T20:39:05.453Z,17.60
2023-02-11T20:42:15.161Z,16.80
2023-02-11T20:45:19.256Z,15.98
2023-02-11T20:48:24.764Z,17.48
2023-02-11T20:51:31.330Z,15.80
2023-02-11T20:54:36.173Z,17.67
2023-02-11T20:57:43.853Z,17.08
2023-02-11T21:00:48.613Z,17.05
2023-02-11T21:03:59.952Z,16.52
2023-02-11T21:07:04.654Z,17.50
2023-02-11T21:10:10.969Z,18.40
2023-02-11T21:13:14.615Z,17.77
2023-02-11T21:16:24.658Z,16.17
2023-02-11T21:19:31.157Z,15.93
2023-02-11T21:22:38.373Z,16.40
2023-02-11T21:25:42.094Z,17.85
2023-02-11T21:28:49.304Z,16.65
2023-02-11T21:31:53.483Z,17.95
2023-02-11T21:34:58.149Z,16.52
2023-02-11T21:38:04.969Z,16.70
2023-02-11T21:41:09.328Z,17.05
2023-02-11T21:44:13.454Z,17.35
2023-02-11T21:47:16.825Z,19.13
2023-02-11T21:50:20.969Z,17.27
2023-02-11T21:53:26.114Z,17.17
2023-02-11T21:56:31.768Z,18.30
2023-02-11T21:59:36.578Z,17.20
2023-02-11T22:02:40.407Z,16.58
2023-02-11T22:05:43.839Z,18.25
2023-02-11T22:08:47.188Z,17.17
2023-02-11T22:11:49.934Z,16.58
2023-02-11T22:14:53.022Z,17.10
2023-02-11T22:17:55.919Z,16.83
2023-02-11T22:21:13.443Z,16.92
2023-02-11T22:24:16.634Z,16.13
2023-02-11T22:27:20.338Z,16.77
2023-02-11T22:30:23.796Z,17.77
2023-02-11T22:33:27.818Z,16.13
2023-02-11T22:36:34.614Z,17.30
2023-02-11T22:39:37.281Z,16.20
2023-02-11T22:42:39.974Z,17.98
2023-02-11T22:45:42.573Z,17.17
2023-02-11T22:48:46.240Z,16.58
2023-02-11T22:51:48.931Z,17.55
2023-02-11T22:54:52.271Z,16.03
2023-02-11T22:57:54.892Z,17.10
2023-02-11T23:00:57.649Z,17.67
2023-02-11T23:04:02.447Z,16.95
2023-02-11T23:07:05.172Z,17.52
2023-02-11T23:10:08.351Z,16.73
2023-02-11T23:13:11.015Z,17.02
2023-02-11T23:16:19.666Z,16.17
2023-02-11T23:19:23.067Z,17.50
2023-02-11T23:22:26.904Z,16.48
2023-02-11T23:25:30.511Z,18.23
2023-02-11T23:28:33.548Z,18.10
2023-02-11T23:31:40.013Z,17.27
2023-02-11T23:34:42.786Z,17.70
2023-02-11T23:37:45.486Z,17.23
2023-02-11T23:40:48.093Z,18.07
2023-02-11T23:43:53.107Z,17.35
2023-02-11T23:46:56.295Z,16.88
2023-02-11T23:49:59.714Z,18.45
2023-02-11T23:53:03.147Z,18.98
2023-02-11T23:56:08.122Z,17.17
2023-02-11T23:59:11.749Z,17.98
